createdAt,value
2018-02-05T00:00:44.645Z,24.13
2018-02-05T00:03:10.678Z,26.47
2018-02-05T00:05:37.372Z,29.77
2018-02-05T00:08:03.305Z,22.43
2018-02-05T00:10:29.289Z,25.37
2018-02-05T00:12:55.229Z,24.10
2018-02-05T00:15:21.941Z,26.27
2018-02-05T00:17:47.941Z,23.97
2018-02-05T00:20:13.941Z,26.00
2018-02-05T00:22:39.889Z,23.47
2018-02-05T00:25:06.577Z,21.73
2018-02-05T00:27:32.585Z,22.40
2018-02-05T00:29:59.294Z,24.73
2018-02-05T00:32:25.342Z,25.53
2018-02-05T00:34:51.286Z,18.33
2018-02-05T00:37:17.289Z,23.43
2018-02-05T00:39:43.285Z,23.30
2018-02-05T00:42:09.970Z,23.07
2018-02-05T00:44:35.952Z,21.20
2018-02-05T00:47:01.956Z,17.87
2018-02-05T00:49:27.924Z,21.03
2018-02-05T00:51:53.889Z,19.77
2018-02-05T00:54:19.881Z,21.50
2018-02-05T00:56:45.854Z,23.17
2018-02-05T00:59:11.825Z,20.47
2018-02-05T01:01:37.808Z,20.80
2018-02-05T01:04:03.745Z,18.97
2018-02-05T01:06:30.464Z,19.00
2018-02-05T01:08:56.441Z,23.33
2018-02-05T01:11:23.172Z,19.83
2018-02-05T01:13:49.112Z,15.93
2018-02-05T01:16:15.125Z,19.63
2018-02-05T01:18:41.156Z,18.27
2018-02-05T01:21:07.105Z,16.03
2018-02-05T01:23:33.157Z,20.87
2018-02-05T01:25:59.136Z,20.03
2018-02-05T01:28:25.081Z,16.40
2018-02-05T01:30:51.069Z,16.43
2018-02-05T01:33:17.041Z,15.63
2018-02-05T01:35:43.037Z,14.90
2018-02-05T01:38:09.021Z,25.03
2018-02-05T01:40:34.960Z,18.40
2018-02-05T01:43:00.937Z,17.93
2018-02-05T01:45:27.648Z,20.97
2018-02-05T01:47:53.633Z,20.13
2018-02-05T01:50:19.609Z,16.20
2018-02-05T01:52:45.560Z,18.73
2018-02-05T01:55:11.548Z,17.13
2018-02-05T01:57:38.237Z,22.83
2018-02-05T02:00:04.212Z,20.00
2018-02-05T02:02:30.201Z,21.17
2018-02-05T02:04:56.144Z,20.27
2018-02-05T02:07:22.089Z,18.20
2018-02-05T02:09:48.068Z,20.80
2018-02-05T02:12:14.024Z,22.83
2018-02-05T02:14:39.973Z,20.37
2018-02-05T02:17:05.957Z,16.77
2018-02-05T02:19:31.973Z,26.07
2018-02-05T02:21:57.921Z,20.97
2018-02-05T02:24:23.869Z,21.33
2018-02-05T02:26:49.852Z,17.43
2018-02-05T02:29:15.813Z,22.83
2018-02-05T02:31:41.854Z,16.00
2018-02-05T02:34:07.797Z,22.80
2018-02-05T02:36:33.814Z,20.60
2018-02-05T02:38:59.796Z,20.53
2018-02-05T02:41:25.754Z,19.83
2018-02-05T02:43:52.512Z,20.23
2018-02-05T02:46:18.493Z,17.70
2018-02-05T02:48:44.500Z,17.13
2018-02-05T02:51:10.482Z,19.43
2018-02-05T02:53:36.426Z,20.10
2018-02-05T02:56:02.386Z,22.70
2018-02-05T02:58:29.100Z,23.27
2018-02-05T03:00:55.063Z,21.67
2018-02-05T03:03:21.778Z,21.37
2018-02-05T03:05:47.740Z,22.63
2018-02-05T03:08:13.697Z,19.70
2018-02-05T03:10:40.421Z,19.40
2018-02-05T03:13:06.392Z,17.10
2018-02-05T03:15:33.128Z,17.20
2018-02-05T03:17:59.111Z,19.00
2018-02-05T03:20:25.109Z,18.33
2018-02-05T03:22:51.809Z,21.70
2018-02-05T03:25:17.788Z,21.03
2018-02-05T03:27:43.873Z,21.67
2018-02-05T03:30:09.881Z,22.20
2018-02-05T03:32:35.845Z,22.97
2018-02-05T03:35:01.877Z,26.93
2018-02-05T03:37:27.825Z,25.43
2018-02-05T03:39:53.794Z,26.30
2018-02-05T03:42:19.741Z,23.43
2018-02-05T03:44:46.480Z,24.17
2018-02-05T03:47:12.465Z,24.80
2018-02-05T03:49:38.401Z,22.30
2018-02-05T03:52:04.369Z,21.00
2018-02-05T03:54:30.308Z,22.00
2018-02-05T03:56:56.279Z,25.87
2018-02-05T03:59:22.960Z,25.30
2018-02-05T04:01:48.961Z,24.50
2018-02-05T04:04:15.683Z,22.57
2018-02-05T04:06:47.745Z,22.63
2018-02-05T04:09:13.717Z,26.63
2018-02-05T04:11:39.651Z,24.53
2018-02-05T04:14:05.647Z,22.43
2018-02-05T04:16:31.581Z,25.77
2018-02-05T04:18:57.536Z,20.53
2018-02-05T04:21:23.500Z,26.43
2018-02-05T04:23:50.313Z,27.37
2018-02-05T04:26:16.256Z,21.10
2018-02-05T04:28:42.233Z,28.00
2018-02-05T04:31:08.944Z,22.63
2018-02-05T04:33:34.937Z,25.30
2018-02-05T04:36:00.881Z,26.57
2018-02-05T04:38:26.821Z,23.07
2018-02-05T04:40:52.840Z,25.50
2018-02-05T04:43:19.528Z,24.70
2018-02-05T04:45:45.521Z,24.60
2018-02-05T04:48:12.289Z,23.00
2018-02-05T04:50:38.246Z,28.50
2018-02-05T04:53:04.224Z,22.97
2018-02-05T04:55:30.168Z,25.80
2018-02-05T04:57:56.890Z,26.70
2018-02-05T05:00:22.851Z,28.70
2018-02-05T05:02:48.865Z,27.67
2018-02-05T05:05:14.847Z,26.90
2018-02-05T05:07:40.817Z,23.63
2018-02-05T05:10:06.757Z,34.10
2018-02-05T05:12:32.728Z,25.50
2018-02-05T05:14:58.681Z,31.70
2018-02-05T05:17:25.413Z,27.03
2018-02-05T05:19:51.352Z,33.57
2018-02-05T05:22:18.098Z,34.43
2018-02-05T05:24:44.122Z,24.50
2018-02-05T05:27:10.146Z,29.90
2018-02-05T05:29:36.124Z,29.63
2018-02-05T05:32:02.093Z,30.97
2018-02-05T05:34:28.065Z,27.43
2018-02-05T05:36:54.036Z,30.40
2018-02-05T05:39:20.753Z,33.83
2018-02-05T05:41:46.745Z,34.63
2018-02-05T05:44:12.716Z,33.40
2018-02-05T05:46:38.692Z,36.37
2018-02-05T05:49:05.454Z,36.90
2018-02-05T05:51:32.159Z,37.30
2018-02-05T05:53:58.113Z,34.73
2018-02-05T05:56:24.075Z,40.27
2018-02-05T05:58:50.800Z,41.03
2018-02-05T06:01:16.789Z,28.77
2018-02-05T06:03:42.750Z,35.93
2018-02-05T06:06:08.717Z,37.10
2018-02-05T06:08:34.712Z,43.63
2018-02-05T06:11:00.661Z,44.67
2018-02-05T06:13:26.653Z,37.80
2018-02-05T06:15:52.589Z,37.83
2018-02-05T06:18:18.520Z,42.17
2018-02-05T06:20:45.296Z,41.80
2018-02-05T06:23:11.237Z,35.87
2018-02-05T06:25:37.205Z,38.87
2018-02-05T06:28:03.957Z,41.87
2018-02-05T06:30:29.902Z,47.30
2018-02-05T06:32:55.876Z,42.17
2018-02-05T06:35:21.817Z,37.00
2018-02-05T06:37:47.784Z,44.00
2018-02-05T06:40:13.788Z,45.33
2018-02-05T06:42:39.765Z,53.57
2018-02-05T06:45:05.712Z,55.53
2018-02-05T06:47:31.688Z,50.50
2018-02-05T06:49:57.633Z,50.07
2018-02-05T06:52:36.005Z,53.70
2018-02-05T06:55:09.204Z,51.57
2018-02-05T06:57:35.177Z,55.40
2018-02-05T07:00:01.858Z,42.87
2018-02-05T07:02:27.832Z,51.90
2018-02-05T07:04:53.801Z,46.37
2018-02-05T07:07:20.476Z,49.70
2018-02-05T07:09:46.442Z,53.67
2018-02-05T07:12:12.427Z,40.27
2018-02-05T07:14:38.373Z,44.60
2018-02-05T07:17:04.341Z,43.50
2018-02-05T07:19:30.337Z,40.20
2018-02-05T07:21:56.310Z,42.03
2018-02-05T07:24:22.293Z,43.27
2018-02-05T07:26:49.004Z,41.77
2018-02-05T07:29:14.979Z,46.87
2018-02-05T07:31:41.779Z,40.90
2018-02-05T07:34:07.749Z,43.43
2018-02-05T07:36:33.725Z,43.27
2018-02-05T07:38:59.704Z,43.00
2018-02-05T07:41:25.685Z,48.80
2018-02-05T07:43:52.374Z,45.20
2018-02-05T07:46:18.344Z,43.67
2018-02-05T07:48:44.305Z,43.43
2018-02-05T07:51:10.308Z,47.77
2018-02-05T07:53:36.251Z,49.57
2018-02-05T07:56:03.692Z,52.17
2018-02-05T07:58:29.689Z,48.57
2018-02-05T08:00:55.642Z,59.77
2018-02-05T08:03:21.581Z,45.93
2018-02-05T08:05:47.564Z,49.00
2018-02-05T08:08:13.550Z,40.87
2018-02-05T08:10:39.497Z,43.27
2018-02-05T08:13:05.489Z,40.90
2018-02-05T08:15:31.465Z,43.27
2018-02-05T08:17:57.432Z,46.37
2018-02-05T08:20:23.432Z,42.20
2018-02-05T08:22:49.409Z,47.30
2018-02-05T08:25:15.421Z,50.07
2018-02-05T08:27:41.370Z,53.13
2018-02-05T08:30:07.320Z,49.40
2018-02-05T08:32:33.284Z,56.33
2018-02-05T08:35:00.054Z,64.70
2018-02-05T08:37:26.025Z,60.87
2018-02-05T08:39:52.017Z,48.57
2018-02-05T08:42:18.733Z,53.27
2018-02-05T08:44:44.766Z,53.27
2018-02-05T08:47:11.482Z,70.30
2018-02-05T08:49:37.421Z,51.17
2018-02-05T08:52:03.384Z,49.43
2018-02-05T08:54:29.353Z,48.10
2018-02-05T08:56:56.076Z,53.45
2018-02-05T08:59:22.021Z,53.87
2018-02-05T09:01:48.724Z,52.00
2018-02-05T09:04:14.676Z,48.50
2018-02-05T09:06:40.645Z,47.33
2018-02-05T09:09:06.586Z,49.53
2018-02-05T09:11:32.555Z,46.83
2018-02-05T09:13:58.526Z,42.47
2018-02-05T09:16:24.456Z,42.97
2018-02-05T09:18:50.429Z,44.63
2018-02-05T09:21:16.417Z,45.03
2018-02-05T09:23:42.362Z,39.67
2018-02-05T09:26:08.324Z,45.40
2018-02-05T09:28:34.273Z,40.03
2018-02-05T09:31:00.279Z,40.27
2018-02-05T09:33:26.257Z,39.40
2018-02-05T09:35:52.940Z,42.10
2018-02-05T09:38:18.906Z,43.03
2018-02-05T09:40:44.901Z,48.23
2018-02-05T09:43:10.832Z,46.80
2018-02-05T09:45:36.809Z,34.90
2018-02-05T09:48:02.794Z,42.80
2018-02-05T09:50:29.504Z,43.93
2018-02-05T09:52:55.441Z,44.23
2018-02-05T09:55:21.400Z,35.73
2018-02-05T09:57:48.096Z,41.80
2018-02-05T10:00:14.129Z,42.10
2018-02-05T10:02:40.069Z,50.37
2018-02-05T10:05:06.019Z,43.38
2018-02-05T10:07:32.021Z,38.30
2018-02-05T10:09:57.980Z,40.60
2018-02-05T10:12:23.949Z,44.00
2018-02-05T10:14:49.893Z,43.37
2018-02-05T10:17:16.658Z,36.80
2018-02-05T10:19:42.610Z,37.03
2018-02-05T10:22:09.321Z,40.40
2018-02-05T10:24:35.299Z,34.90
2018-02-05T10:27:01.994Z,36.80
2018-02-05T10:29:27.960Z,35.57
2018-02-05T10:31:53.938Z,46.00
2018-02-05T10:34:19.894Z,41.70
2018-02-05T10:36:45.956Z,44.90
2018-02-05T10:39:11.913Z,38.07
2018-02-05T10:41:37.981Z,32.03
2018-02-05T10:44:03.912Z,36.53
2018-02-05T10:46:29.889Z,38.23
2018-02-05T10:48:55.865Z,45.90
2018-02-05T10:51:22.540Z,31.53
2018-02-05T10:53:48.577Z,35.60
2018-02-05T10:56:14.590Z,36.17
2018-02-05T10:58:41.334Z,39.60
2018-02-05T11:01:07.281Z,40.40
2018-02-05T11:03:33.994Z,40.10
2018-02-05T11:05:59.961Z,33.00
2018-02-05T11:08:26.658Z,36.17
2018-02-05T11:10:52.624Z,50.70
2018-02-05T11:13:18.585Z,60.80
2018-02-05T11:15:45.337Z,42.07
2018-02-05T11:18:12.021Z,40.10
2018-02-05T11:20:37.997Z,43.27
2018-02-05T11:23:04.034Z,38.80
2018-02-05T11:25:29.993Z,35.40
2018-02-05T11:27:56.005Z,36.93
2018-02-05T11:30:21.948Z,34.30
2018-02-05T11:32:47.916Z,34.90
2018-02-05T11:35:14.735Z,36.10
2018-02-05T11:37:40.688Z,34.83
2018-02-05T11:40:06.632Z,39.50
2018-02-05T11:42:34.310Z,33.50
2018-02-05T11:45:00.253Z,119.40
2018-02-05T11:47:26.206Z,33.17
2018-02-05T11:49:52.193Z,41.13
2018-02-05T11:52:18.208Z,71.63
2018-02-05T11:54:44.192Z,29.33
2018-02-05T11:57:10.910Z,32.30
2018-02-05T11:59:37.018Z,35.80
2018-02-05T12:02:02.985Z,30.47
2018-02-05T12:04:28.928Z,27.53
2018-02-05T12:06:54.910Z,27.33
2018-02-05T12:09:21.626Z,22.70
2018-02-05T12:11:47.621Z,24.90
2018-02-05T12:14:13.592Z,29.70
2018-02-05T12:16:39.569Z,30.20
2018-02-05T12:19:06.277Z,26.37
2018-02-05T12:21:32.253Z,24.80
2018-02-05T12:23:58.953Z,26.97
2018-02-05T12:26:24.888Z,25.40
2018-02-05T12:28:50.861Z,25.40
2018-02-05T12:31:16.869Z,23.57
2018-02-05T12:33:42.854Z,23.47
2018-02-05T12:36:09.597Z,23.37
2018-02-05T12:38:36.334Z,22.30
2018-02-05T12:41:02.316Z,21.13
2018-02-05T12:43:28.260Z,18.60
2018-02-05T12:45:54.256Z,29.27
2018-02-05T12:48:20.975Z,22.20
2018-02-05T12:50:46.985Z,18.83
2018-02-05T12:53:12.969Z,23.10
2018-02-05T12:55:38.926Z,18.20
2018-02-05T12:58:05.664Z,18.53
2018-02-05T13:00:34.628Z,18.30
2018-02-05T13:03:04.769Z,21.80
2018-02-05T13:05:30.718Z,21.20
2018-02-05T13:07:56.658Z,20.60
2018-02-05T13:10:22.637Z,26.60
2018-02-05T13:12:48.611Z,38.80
2018-02-05T13:15:14.576Z,22.20
2018-02-05T13:17:41.297Z,33.13
2018-02-05T13:20:07.229Z,24.80
2018-02-05T13:22:33.322Z,21.07
2018-02-05T13:25:00.041Z,20.10
2018-02-05T13:27:26.001Z,19.73
2018-02-05T13:29:51.977Z,18.10
2018-02-05T13:32:17.978Z,20.50
2018-02-05T13:34:44.751Z,16.57
2018-02-05T13:37:10.688Z,15.47
2018-02-05T13:39:36.674Z,27.10
2018-02-05T13:42:02.668Z,14.63
2018-02-05T13:44:28.613Z,15.43
2018-02-05T13:46:54.590Z,19.33
2018-02-05T13:49:20.550Z,15.50
2018-02-05T13:51:47.406Z,16.17
2018-02-05T13:54:14.275Z,14.57
2018-02-05T13:56:40.240Z,12.40
2018-02-05T13:59:06.233Z,13.37
2018-02-05T14:01:32.988Z,14.43
2018-02-05T14:04:06.722Z,15.10
2018-02-05T14:06:32.710Z,13.00
2018-02-05T14:08:58.665Z,16.80
2018-02-05T14:11:24.650Z,12.47
2018-02-05T14:13:50.644Z,12.37
2018-02-05T14:16:16.637Z,12.03
2018-02-05T14:18:42.617Z,13.02
2018-02-05T14:21:09.306Z,15.00
2018-02-05T14:23:35.292Z,12.90
2018-02-05T14:26:01.255Z,12.73
2018-02-05T14:28:27.240Z,13.67
2018-02-05T14:30:53.304Z,13.03
2018-02-05T14:33:19.265Z,15.17
2018-02-05T14:35:46.021Z,13.70
2018-02-05T14:38:12.757Z,17.03
2018-02-05T14:40:38.716Z,14.13
2018-02-05T14:43:04.684Z,12.77
2018-02-05T14:45:30.683Z,14.83
2018-02-05T14:47:56.644Z,13.13
2018-02-05T14:50:22.621Z,12.50
2018-02-05T14:52:48.602Z,14.67
2018-02-05T14:55:14.628Z,11.70
2018-02-05T14:57:40.710Z,13.17
2018-02-05T15:00:06.672Z,13.60
2018-02-05T15:02:32.652Z,12.23
2018-02-05T15:04:58.629Z,15.37
2018-02-05T15:07:24.596Z,15.77
2018-02-05T15:09:51.277Z,11.70
2018-02-05T15:12:17.256Z,14.90
2018-02-05T15:14:43.196Z,10.80
2018-02-05T15:17:09.181Z,13.63
2018-02-05T15:19:35.124Z,12.87
2018-02-05T15:22:01.067Z,15.87
2018-02-05T15:24:27.065Z,15.03
2018-02-05T15:26:53.748Z,16.90
2018-02-05T15:29:19.738Z,15.33
2018-02-05T15:31:45.708Z,16.13
2018-02-05T15:34:11.651Z,14.27
2018-02-05T15:36:37.693Z,17.73
2018-02-05T15:39:04.411Z,15.03
2018-02-05T15:41:31.092Z,17.33
2018-02-05T15:43:57.040Z,16.23
2018-02-05T15:46:23.024Z,18.07
2018-02-05T15:48:49.034Z,21.87
2018-02-05T15:51:15.021Z,18.33
2018-02-05T15:53:40.964Z,16.73
2018-02-05T15:56:06.897Z,14.40
2018-02-05T15:58:32.864Z,18.80
2018-02-05T16:00:58.833Z,19.40
2018-02-05T16:03:24.898Z,16.07
2018-02-05T16:05:51.605Z,13.93
2018-02-05T16:08:17.568Z,17.30
2018-02-05T16:10:43.565Z,16.00
2018-02-05T16:13:09.504Z,17.73
2018-02-05T16:15:35.513Z,15.27
2018-02-05T16:18:01.444Z,15.50
2018-02-05T16:20:27.409Z,13.80
2018-02-05T16:22:54.129Z,15.80
2018-02-05T16:25:20.084Z,18.40
2018-02-05T16:27:46.068Z,18.20
2018-02-05T16:30:12.044Z,20.53
2018-02-05T16:32:38.018Z,14.63
2018-02-05T16:35:04.013Z,12.87
2018-02-05T16:37:29.960Z,15.80
2018-02-05T16:39:55.967Z,12.00
2018-02-05T16:42:22.664Z,15.60
2018-02-05T16:44:48.635Z,12.77
2018-02-05T16:47:15.413Z,14.37
2018-02-05T16:49:41.353Z,12.83
2018-02-05T16:52:07.325Z,15.47
2018-02-05T16:54:33.324Z,12.33
2018-02-05T16:56:59.268Z,14.60
2018-02-05T16:59:25.251Z,17.03
2018-02-05T17:01:51.241Z,13.93
2018-02-05T17:04:17.238Z,15.00
2018-02-05T17:06:44.105Z,15.70
2018-02-05T17:09:10.817Z,14.97
2018-02-05T17:11:36.816Z,25.03
2018-02-05T17:14:02.829Z,13.03
2018-02-05T17:16:28.830Z,15.03
2018-02-05T17:18:55.552Z,15.73
2018-02-05T17:21:21.536Z,18.40
2018-02-05T17:23:47.500Z,12.60
2018-02-05T17:26:13.575Z,16.20
2018-02-05T17:28:39.502Z,14.83
2018-02-05T17:31:05.472Z,18.00
2018-02-05T17:33:31.469Z,16.07
2018-02-05T17:35:57.449Z,15.17
2018-02-05T17:38:23.493Z,20.37
2018-02-05T17:40:49.521Z,21.37
2018-02-05T17:43:15.472Z,21.77
2018-02-05T17:45:41.422Z,21.63
2018-02-05T17:48:08.150Z,20.60
2018-02-05T17:50:34.122Z,22.70
2018-02-05T17:53:00.905Z,18.67
2018-02-05T17:55:26.860Z,15.40
2018-02-05T17:57:52.849Z,14.03
2018-02-05T18:00:19.636Z,21.63
2018-02-05T18:02:45.634Z,15.43
2018-02-05T18:05:12.334Z,16.53
2018-02-05T18:07:38.343Z,15.83
2018-02-05T18:10:04.293Z,10.20
2018-02-05T18:12:30.277Z,15.80
2018-02-05T18:14:57.049Z,15.63
2018-02-05T18:17:23.733Z,12.23
2018-02-05T18:19:49.736Z,9.20
2018-02-05T18:22:16.432Z,10.33
2018-02-05T18:24:42.413Z,10.43
2018-02-05T18:27:09.120Z,10.63
2018-02-05T18:29:35.094Z,11.07
2018-02-05T18:32:01.145Z,11.53
2018-02-05T18:34:27.844Z,16.93
2018-02-05T18:36:53.788Z,12.00
2018-02-05T18:39:19.821Z,12.93
2018-02-05T18:41:45.806Z,12.00
2018-02-05T18:44:12.547Z,10.30
2018-02-05T18:46:38.521Z,10.17
2018-02-05T18:49:04.520Z,14.47
2018-02-05T18:51:30.483Z,10.50
2018-02-05T18:53:57.168Z,9.87
2018-02-05T18:56:35.525Z,13.50
2018-02-05T18:59:01.476Z,10.67
2018-02-05T19:01:27.441Z,17.70
2018-02-05T19:03:53.389Z,10.33
2018-02-05T19:06:19.377Z,13.17
2018-02-05T19:08:45.406Z,10.43
2018-02-05T19:11:11.358Z,10.53
2018-02-05T19:13:38.076Z,10.63
2018-02-05T19:16:04.020Z,11.40
2018-02-05T19:18:30.042Z,11.83
2018-02-05T19:20:55.985Z,14.63
2018-02-05T19:23:21.965Z,15.13
2018-02-05T19:25:48.690Z,11.33
2018-02-05T19:28:14.720Z,14.50
2018-02-05T19:30:40.656Z,10.40
2018-02-05T19:33:06.608Z,11.80
2018-02-05T19:35:33.345Z,11.03
2018-02-05T19:37:59.309Z,10.53
2018-02-05T19:40:26.040Z,8.93
2018-02-05T19:42:52.120Z,10.40
2018-02-05T19:45:18.092Z,11.07
2018-02-05T19:47:44.155Z,10.63
2018-02-05T19:50:10.192Z,12.70
2018-02-05T19:52:36.171Z,9.60
2018-02-05T19:55:02.133Z,10.40
2018-02-05T19:57:28.108Z,15.23
2018-02-05T19:59:54.085Z,10.33
2018-02-05T20:02:20.056Z,12.50
2018-02-05T20:04:46.091Z,12.50
2018-02-05T20:07:12.092Z,13.07
2018-02-05T20:09:38.032Z,9.60
2018-02-05T20:12:04.027Z,11.80
2018-02-05T20:14:30.043Z,12.07
2018-02-05T20:16:55.999Z,9.10
2018-02-05T20:19:21.985Z,11.77
2018-02-05T20:21:48.007Z,10.50
2018-02-05T20:24:14.098Z,11.03
2018-02-05T20:26:40.104Z,9.33
2018-02-05T20:29:06.085Z,15.00
2018-02-05T20:31:32.814Z,14.50
2018-02-05T20:33:58.855Z,13.67
2018-02-05T20:36:24.809Z,11.10
2018-02-05T20:38:51.529Z,11.60
2018-02-05T20:41:17.553Z,10.70
2018-02-05T20:43:43.613Z,9.60
2018-02-05T20:46:09.568Z,10.33
2018-02-05T20:48:35.540Z,9.57
2018-02-05T20:51:01.488Z,10.87
2018-02-05T20:53:27.465Z,11.13
2018-02-05T20:55:53.450Z,9.27
2018-02-05T20:58:20.222Z,10.60
2018-02-05T21:00:46.237Z,9.30
2018-02-05T21:03:12.180Z,11.53
2018-02-05T21:05:38.158Z,11.43
2018-02-05T21:08:04.153Z,10.33
2018-02-05T21:10:30.142Z,11.87
2018-02-05T21:12:56.141Z,12.37
2018-02-05T21:15:22.166Z,15.77
2018-02-05T21:17:48.222Z,17.10
2018-02-05T21:20:14.197Z,16.53
2018-02-05T21:22:40.925Z,20.33
2018-02-05T21:25:06.922Z,18.57
2018-02-05T21:27:32.939Z,20.10
2018-02-05T21:29:59.695Z,16.27
2018-02-05T21:32:26.417Z,24.10
2018-02-05T21:34:52.373Z,11.50
2018-02-05T21:37:19.157Z,12.60
2018-02-05T21:39:46.023Z,14.27
2018-02-05T21:42:12.027Z,12.10
2018-02-05T21:44:38.754Z,12.70
2018-02-05T21:47:04.775Z,9.60
2018-02-05T21:49:30.760Z,10.23
2018-02-05T21:51:57.518Z,11.70
2018-02-05T21:54:23.502Z,12.57
2018-02-05T21:56:49.483Z,10.43
2018-02-05T21:59:16.988Z,11.60
2018-02-05T22:01:42.962Z,19.23
2018-02-05T22:04:08.991Z,10.77
2018-02-05T22:06:34.932Z,16.03
2018-02-05T22:09:01.684Z,12.80
2018-02-05T22:11:27.676Z,14.33
2018-02-05T22:13:53.632Z,13.20
2018-02-05T22:16:19.626Z,12.87
2018-02-05T22:18:46.366Z,16.47
2018-02-05T22:21:13.094Z,12.77
2018-02-05T22:23:39.897Z,12.77
2018-02-05T22:26:05.842Z,13.20
2018-02-05T22:28:31.816Z,12.73
2018-02-05T22:30:57.760Z,10.67
2018-02-05T22:33:23.796Z,15.90
2018-02-05T22:35:50.477Z,12.30
2018-02-05T22:38:17.268Z,10.80
2018-02-05T22:40:43.251Z,15.97
2018-02-05T22:43:09.218Z,13.03
2018-02-05T22:45:35.184Z,12.83
2018-02-05T22:48:01.198Z,11.83
2018-02-05T22:50:27.153Z,11.70
2018-02-05T22:52:53.147Z,14.23
2018-02-05T22:55:19.849Z,14.00
2018-02-05T22:57:45.825Z,12.20
2018-02-05T23:00:15.589Z,12.20
2018-02-05T23:02:41.569Z,13.40
2018-02-05T23:05:07.540Z,14.93
2018-02-05T23:07:34.220Z,12.97
2018-02-05T23:10:00.223Z,12.43
2018-02-05T23:12:26.896Z,11.17
2018-02-05T23:14:52.885Z,15.03
2018-02-05T23:17:18.865Z,12.73
2018-02-05T23:19:44.855Z,11.67
2018-02-05T23:22:10.807Z,18.10
2018-02-05T23:24:37.592Z,14.80
2018-02-05T23:27:03.579Z,11.10
2018-02-05T23:29:29.545Z,13.70
2018-02-05T23:31:56.237Z,14.30
2018-02-05T23:34:22.210Z,12.60
2018-02-05T23:36:48.193Z,13.73
2018-02-05T23:39:14.166Z,13.67
2018-02-05T23:41:40.136Z,16.10
2018-02-05T23:44:06.887Z,13.90
2018-02-05T23:46:33.597Z,12.10
2018-02-05T23:48:59.565Z,12.57
2018-02-05T23:51:25.533Z,12.13
2018-02-05T23:53:51.481Z,15.43
2018-02-05T23:56:17.445Z,15.27
2018-02-05T23:58:43.434Z,14.47
